Washington, District of Columbia
Traffic Map
Current Weather Conditions
Washington, District of Columbia
Broken Clouds
Broken Clouds
86°
Feels Like: 94°
Wind Chill: 86° Ceiling: 6500
Heat Index: 94° Visibility: 10mi
Dew Point: 74° Wind: 7mph
Humidity: 67% Direction: 160° (SSE)
Pressure: 29.97in Gusts: 0mph
Raw Report DataKDCA 250414Z 16006KT 10SM BKN065 BKN080 BKN150 BKN250 30/23 A2997 RMK AO2 RAE0356 TSE13 P0000 T03000233
Traffic Incident Summary
Active as of:
Severity:
Category:
InformationThere was an issue retrieving the traffic information for this location. Please try a different location or try again shortly.
Advertisements
Track Severe Weather on mobile